Latest Coastal Weather Observations for Portland Harbour

IDS60701

Issued at 4:31 am CST Sunday 30 August 2015 (issued every 10 minutes, with the page automatically refreshed every 10 minutes)

About coastal observations | Map of coastal stations | Coastal observations for SA | Marine services | Other Formats
Station Details ID: 090192 Name: PORTLAND NTC AWS Lat: -38.34 Lon: 141.61 Height: 0.0 m
Data from the previous 72 hours. | See also: Recent months for locations in South Australia
Date/Time
CST
Temp

°C
Wind Pressure Rain
since 9am
mm
Weather Cloud Vis
km
Sea
Height
m
Swell
Dir
 
Speed
knots
Gust
knots
hPa Trend Height
m
Period
s
Dir
30/04:30am 10.1 S 9 12 1026.3 - - - - - - - - -
30/04:00am 10.5 SE 10 13 1026.3 - - - - - - - - -
30/03:30am 10.0 SSE 6 9 1026.4 - - - - - - - - -
30/03:00am 10.2 SSE 6 8 1026.6 - - - - - - - - -
30/02:30am 9.8 SSE 7 11 1026.9 - - - - - - - - -
30/02:00am 10.1 SSE 6 9 1027.2 - - - - - - - - -
30/01:30am 9.9 SSE 8 12 1027.6 - - - - - - - - -
30/01:00am 9.7 SSE 8 11 1027.7 - - - - - - - - -
30/12:30am 10.0 SSE 9 13 1027.9 - - - - - - - - -
30/12:00am 10.0 SSE 11 17 1028.0 - - - - - - - - -
 
Date/Time
CST
Temp

°C
Wind Pressure Rain
since 9am
mm
Weather Cloud Vis
km
Sea
Height
m
Swell
Dir
 
Speed
knots
Gust
knots
hPa Trend Height
m
Period
s
Dir
29/11:30pm 9.6 S 8 12 1028.0 - - - - - - - - -
29/11:00pm 9.8 S 7 13 1028.3 - - - - - - - - -
29/10:30pm 9.8 S 8 13 1028.4 - - - - - - - - -
29/10:00pm 10.1 S 8 11 1028.5 - - - - - - - - -
29/09:30pm 9.6 SSE 9 15 1028.6 - - - - - - - - -
29/09:00pm 10.3 S 8 10 1028.8 - - - - - - - - -
29/08:30pm 10.3 SSE 9 16 1029.0 - - - - - - - - -
29/08:00pm 10.1 S 10 15 1028.6 - - - - - - - - -
29/07:30pm 10.4 S 10 13 1028.6 - - - - - - - - -
29/07:00pm 10.4 S 11 17 1028.6 - - - - - - - - -
29/06:30pm 10.2 SSE 8 12 1028.6 - - - - - - - - -
29/06:00pm 10.2 S 9 12 1028.4 - - - - - - - - -
29/05:30pm 10.1 S 9 11 1028.2 - - - - - - - - -
29/05:00pm 10.3 S 12 15 1028.3 - - - - - - - - -
29/04:30pm 9.8 S 11 16 1028.4 - - - - - - - - -
29/04:00pm 9.0 S 10 15 1028.5 - - - - - - - - -
29/03:30pm 9.7 SSE 12 18 1028.4 - - - - - - - - -
29/03:00pm 10.6 S 13 18 1028.4 - - - - - - - - -
29/02:30pm 10.6 S 14 20 1028.5 - - - - - - - - -
29/02:00pm 10.6 S 12 17 1028.6 - - - - - - - - -
29/01:30pm 10.8 S 12 17 1028.7 - - - - - - - - -
29/01:00pm 10.7 S 13 18 1029.0 - - - - - - - - -
29/12:30pm 11.0 SE 12 17 1029.2 - - - - - - - - -
29/12:00pm 10.4 SSE 12 19 1029.5 - - - - - - - - -
29/11:30am 10.7 S 11 18 1029.7 - - - - - - - - -
29/11:00am 10.2 SSE 11 16 1029.9 - - - - - - - - -
29/10:30am 10.2 S 11 16 1029.9 - - - - - - - - -
29/10:00am 9.8 SSE 13 20 1030.0 - - - - - - - - -
29/09:30am 10.1 S 13 17 1029.9 - - - - - - - - -
29/09:00am 9.8 SSE 11 16 1029.9 - - - - - - - - -
29/08:30am 10.0 SSE 12 17 1030.1 - - - - - - - - -
29/08:00am 9.8 S 12 18 1030.0 - - - - - - - - -
29/07:30am 9.8 SSE 9 12 1029.8 - - - - - - - - -
29/07:00am 9.6 S 12 17 1029.5 - - - - - - - - -
29/06:30am 9.8 S 12 17 1029.2 - - - - - - - - -
29/06:00am 9.7 SSE 7 10 1028.9 - - - - - - - - -
29/05:30am 9.6 SSE 7 9 1028.9 - - - - - - - - -
29/05:00am 9.5 SSE 10 14 1028.8 - - - - - - - - -
29/04:30am 9.9 SSE 13 17 1028.8 - - - - - - - - -
29/04:00am 10.0 SE 15 20 1028.6 - - - - - - - - -
29/03:30am 9.7 SSE 10 13 1028.5 - - - - - - - - -
29/03:00am 9.9 SE 14 19 1028.6 - - - - - - - - -
29/02:30am 9.9 SE 15 20 1029.0 - - - - - - - - -
29/02:00am 10.3 SE 14 21 1029.1 - - - - - - - - -
29/01:30am 10.1 SE 13 18 1029.3 - - - - - - - - -
29/01:00am 10.1 SE 17 23 1029.3 - - - - - - - - -
29/12:30am 10.3 SE 14 19 1029.2 - - - - - - - - -
29/12:00am 10.3 SE 16 23 1029.2 - - - - - - - - -
 
Date/Time
CST
Temp

°C
Wind Pressure Rain
since 9am
mm
Weather Cloud Vis
km
Sea
Height
m
Swell
Dir
 
Speed
knots
Gust
knots
hPa Trend Height
m
Period
s
Dir
28/11:30pm 9.9 SE 12 17 1029.4 - - - - - - - - -
28/11:00pm 10.4 SE 13 19 1029.3 - - - - - - - - -
28/10:30pm 10.0 SE 14 20 1029.5 - - - - - - - - -
28/10:00pm 10.2 SE 13 17 1029.5 - - - - - - - - -
28/09:30pm 10.3 SE 16 22 1029.4 - - - - - - - - -
28/09:00pm 10.4 SE 14 19 1029.5 - - - - - - - - -
28/08:30pm 10.2 SE 14 18 1029.3 - - - - - - - - -
28/08:00pm 10.3 SE 15 20 1029.0 - - - - - - - - -
28/07:30pm 10.4 SE 15 21 1028.9 - - - - - - - - -
28/07:00pm 10.6 SE 15 20 1028.7 - - - - - - - - -
28/06:30pm 10.7 SE 15 20 1028.4 - - - - - - - - -
28/06:00pm 10.7 SE 15 19 1028.1 - - - - - - - - -
28/05:30pm 10.6 SE 16 20 1028.0 - - - - - - - - -
28/05:00pm 10.9 SE 15 20 1027.7 - - - - - - - - -
28/04:30pm 10.8 SE 16 22 1027.5 - - - - - - - - -
28/04:00pm 10.9 SE 17 22 1027.4 - - - - - - - - -
28/03:30pm 10.9 SE 17 23 1027.1 - - - - - - - - -
28/03:00pm 10.7 SE 18 23 1027.0 - - - - - - - - -
28/02:30pm 10.1 SE 19 24 1027.2 - - - - - - - - -
28/02:02pm 10.5 SSE 14 28 1026.9 - - - - - - - - -
28/02:00pm 11.3 SSE 11 21 1026.9 - - - - - - - - -
28/01:30pm 12.4 SSW 7 10 1026.8 - - - - - - - - -
28/01:00pm 12.7 SSW 8 12 1026.8 - - - - - - - - -
28/12:30pm 12.4 SSW 8 12 1027.3 - - - - - - - - -
28/12:00pm 12.6 SSW 8 10 1027.6 - - - - - - - - -
28/11:30am 12.5 S 7 11 1028.0 - - - - - - - - -
28/11:00am 12.3 SSW 8 12 1028.2 - - - - - - - - -
28/10:30am 12.1 SSW 7 10 1028.2 - - - - - - - - -
28/10:00am 12.0 SSW 8 13 1028.4 - - - - - - - - -
28/09:30am 11.9 SSW 10 13 1028.3 - - - - - - - - -
28/09:00am 11.8 SSW 9 13 1028.3 - - - - - - - - -
28/08:30am 11.8 S 8 10 1028.2 - - - - - - - - -
28/08:00am 11.6 S 5 8 1028.1 - - - - - - - - -
28/07:30am 11.4 S 7 9 1027.9 - - - - - - - - -
28/07:00am 11.4 S 9 11 1027.7 - - - - - - - - -
28/06:30am 11.2 S 6 8 1027.3 - - - - - - - - -
28/06:00am 11.1 S 5 7 1027.0 - - - - - - - - -
28/05:30am 11.2 S 8 11 1026.9 - - - - - - - - -
28/05:00am 11.1 SSE 10 14 1026.7 - - - - - - - - -
28/04:30am 11.1 S 9 13 1026.5 - - - - - - - - -
28/04:00am 10.8 SSW 8 11 1026.4 - - - - - - - - -
28/03:30am 10.6 S 8 12 1026.4 - - - - - - - - -
28/03:00am 10.6 S 11 15 1026.6 - - - - - - - - -
28/02:30am 10.4 SSW 11 17 1026.8 - - - - - - - - -
28/02:00am 10.5 S 12 18 1026.9 - - - - - - - - -
28/01:30am 10.2 SSE 10 15 1027.0 - - - - - - - - -
28/01:00am 10.4 SSW 15 21 1027.1 - - - - - - - - -
28/12:30am 10.9 S 10 14 1026.9 - - - - - - - - -
28/12:00am 10.9 S 12 17 1026.8 - - - - - - - - -
 
Date/Time
CST
Temp

°C
Wind Pressure Rain
since 9am
mm
Weather Cloud Vis
km
Sea
Height
m
Swell
Dir
 
Speed
knots
Gust
knots
hPa Trend Height
m
Period
s
Dir
27/11:30pm 11.2 S 11 15 1026.7 - - - - - - - - -
27/11:00pm 11.5 S 11 16 1026.6 - - - - - - - - -
27/10:30pm 11.7 S 10 15 1026.7 - - - - - - - - -
27/10:00pm 11.4 S 10 13 1026.7 - - - - - - - - -
27/09:30pm 11.4 S 10 15 1026.7 - - - - - - - - -
27/09:00pm 11.6 S 11 15 1026.6 - - - - - - - - -
27/08:30pm 11.6 S 12 15 1026.4 - - - - - - - - -
27/08:00pm 12.3 S 11 15 1026.1 - - - - - - - - -
27/07:30pm 12.3 S 12 17 1025.8 - - - - - - - - -
27/07:00pm 12.4 SSE 11 17 1025.5 - - - - - - - - -
27/06:30pm 12.4 S 12 17 1025.3 - - - - - - - - -
27/06:00pm 12.4 SSE 13 19 1024.9 - - - - - - - - -
27/05:30pm 12.1 SSE 15 24 1024.5 - - - - - - - - -
27/05:00pm 12.0 S 15 24 1024.1 - - - - - - - - -
27/04:30pm 12.2 S 14 18 1023.6 - - - - - - - - -
27/04:00pm 12.4 S 16 20 1023.2 - - - - - - - - -
27/03:30pm 12.6 S 17 24 1023.0 - - - - - - - - -
27/03:00pm 12.7 S 15 22 1022.8 - - - - - - - - -
27/02:30pm 12.6 S 18 25 1022.4 - - - - - - - - -
27/02:00pm 13.4 S 14 20 1022.4 - - - - - - - - -
27/01:30pm 13.1 S 13 19 1022.4 - - - - - - - - -
27/01:00pm 13.2 S 10 16 1022.6 - - - - - - - - -
27/12:30pm 13.2 S 11 15 1022.7 - - - - - - - - -
27/12:00pm 13.2 S 13 17 1022.8 - - - - - - - - -
27/11:30am 13.5 SSW 11 13 1022.9 - - - - - - - - -
27/11:00am 13.1 S 10 13 1023.2 - - - - - - - - -
27/10:30am 13.3 S 11 14 1023.2 - - - - - - - - -
27/10:00am 13.0 S 10 14 1023.0 - - - - - - - - -
27/09:30am 12.6 SSW 8 10 1023.1 - - - - - - - - -
27/09:00am 12.6 WNW 2 4 1023.0 - - - - - - - - -
27/08:30am 10.8 WNW 4 6 1023.0 - - - - - - - - -
27/08:00am 9.2 WSW 3 4 1022.8 - - - - - - - - -
27/07:30am 8.6 W 1 2 1022.4 - - - - - - - - -
27/07:00am 7.3 SW 2 4 1022.0 - - - - - - - - -
27/06:30am 7.4 WSW 2 3 1021.7 - - - - - - - - -
27/06:00am 8.2 NW 2 3 1021.7 - - - - - - - - -
27/05:30am 8.0 CALM 0 1 1021.5 - - - - - - - - -
27/05:00am 8.1 W 4 5 1021.2 - - - - - - - - -
27/04:30am 8.6 WSW 5 6 1021.1 - - - - - - - - -

Other Formats:

Comma delimited format used in spreadsheet applications
http://www.bom.gov.au/fwo/IDS60701/IDS60701.95826.axf

JavaScript Object Notation format (JSON) in row-major order
http://www.bom.gov.au/fwo/IDS60701/IDS60701.95826.json